createdAt,value
2022-07-31T00:01:09.375Z,19.00
2022-07-31T00:03:38.042Z,18.90
2022-07-31T00:06:06.887Z,18.80
2022-07-31T00:08:37.360Z,18.80
2022-07-31T00:11:05.968Z,18.80
2022-07-31T00:13:57.657Z,18.70
2022-07-31T00:16:24.670Z,18.60
2022-07-31T00:18:53.380Z,18.40
2022-07-31T00:21:21.940Z,18.30
2022-07-31T00:23:50.777Z,18.10
2022-07-31T00:26:19.630Z,18.00
2022-07-31T00:28:49.879Z,18.00
2022-07-31T00:31:19.543Z,17.80
2022-07-31T00:33:48.110Z,17.80
2022-07-31T00:36:16.709Z,17.70
2022-07-31T00:38:45.281Z,17.60
2022-07-31T00:41:13.870Z,17.50
2022-07-31T00:43:42.560Z,17.50
2022-07-31T00:46:15.420Z,17.40
2022-07-31T00:48:45.800Z,17.30
2022-07-31T00:51:14.567Z,17.20
2022-07-31T00:53:43.222Z,17.10
2022-07-31T00:56:11.821Z,17.10
2022-07-31T00:58:40.483Z,17.00
2022-07-31T01:01:09.261Z,17.00
2022-07-31T01:03:39.519Z,16.90
2022-07-31T01:06:08.582Z,16.90
2022-07-31T01:08:37.220Z,16.90
2022-07-31T01:11:08.372Z,16.80
2022-07-31T01:13:45.050Z,16.80
2022-07-31T01:16:15.798Z,16.80
2022-07-31T01:18:46.400Z,16.70
2022-07-31T01:21:33.309Z,16.70
2022-07-31T01:24:22.390Z,16.70
2022-07-31T01:26:57.630Z,16.60
2022-07-31T01:29:30.630Z,16.60
2022-07-31T01:32:02.850Z,16.50
2022-07-31T01:34:38.323Z,16.50
2022-07-31T01:37:12.560Z,16.50
2022-07-31T01:39:46.270Z,16.40
2022-07-31T01:42:18.040Z,16.40
2022-07-31T01:44:52.930Z,16.40
2022-07-31T01:47:23.490Z,16.40
2022-07-31T01:49:54.803Z,16.50
2022-07-31T01:52:25.742Z,16.60
2022-07-31T01:54:56.822Z,16.60
2022-07-31T01:57:27.598Z,16.60
2022-07-31T02:00:00.218Z,16.60
2022-07-31T02:02:29.391Z,16.70
2022-07-31T02:04:58.641Z,16.70
2022-07-31T02:07:28.040Z,16.80
2022-07-31T02:09:59.036Z,16.80
2022-07-31T02:12:33.745Z,16.80
2022-07-31T02:15:07.611Z,16.90
2022-07-31T02:17:37.550Z,16.90
2022-07-31T02:20:09.251Z,17.00
2022-07-31T02:22:41.162Z,16.90
2022-07-31T02:25:10.562Z,16.90
2022-07-31T02:27:57.708Z,17.00
2022-07-31T02:30:38.876Z,17.00
2022-07-31T02:33:10.532Z,17.00
2022-07-31T02:35:44.047Z,17.00
2022-07-31T02:38:18.061Z,17.00
2022-07-31T02:40:53.257Z,17.00
2022-07-31T02:43:22.821Z,17.00
2022-07-31T02:45:53.129Z,16.90
2022-07-31T02:48:22.321Z,16.90
2022-07-31T02:50:51.991Z,16.90
2022-07-31T02:53:21.452Z,16.90
2022-07-31T02:55:51.049Z,16.80
2022-07-31T02:58:20.191Z,16.70
2022-07-31T03:00:53.352Z,16.60
2022-07-31T03:03:23.442Z,16.50
2022-07-31T03:05:52.565Z,16.40
2022-07-31T03:08:21.201Z,16.30
2022-07-31T03:10:50.582Z,16.30
2022-07-31T03:13:21.481Z,16.30
2022-07-31T03:15:51.562Z,16.20
2022-07-31T03:18:21.887Z,16.10
2022-07-31T03:20:53.621Z,16.10
2022-07-31T03:23:23.954Z,16.10
2022-07-31T03:25:53.891Z,16.10
2022-07-31T03:28:23.162Z,16.10
2022-07-31T03:30:55.271Z,16.10
2022-07-31T03:33:25.613Z,16.10
2022-07-31T03:35:55.937Z,16.10
2022-07-31T03:38:39.222Z,16.20
2022-07-31T03:41:11.166Z,16.20
2022-07-31T03:43:44.194Z,16.30
2022-07-31T03:46:18.622Z,16.30
2022-07-31T03:48:48.298Z,16.30
2022-07-31T03:51:18.423Z,16.30
2022-07-31T03:53:49.321Z,16.30
2022-07-31T03:56:19.072Z,16.30
2022-07-31T03:58:52.680Z,16.40
2022-07-31T04:01:22.982Z,16.40
2022-07-31T04:03:59.534Z,16.40
2022-07-31T04:06:29.642Z,16.50
2022-07-31T04:09:13.663Z,16.50
2022-07-31T04:11:47.802Z,16.60
2022-07-31T04:14:16.562Z,16.60
2022-07-31T04:16:45.124Z,16.60
2022-07-31T04:19:13.785Z,16.60
2022-07-31T04:21:43.911Z,16.60
2022-07-31T04:24:16.918Z,16.60
2022-07-31T04:26:45.602Z,16.60
2022-07-31T04:29:14.182Z,16.60
2022-07-31T04:31:42.852Z,16.60
2022-07-31T04:34:11.983Z,16.60
2022-07-31T04:36:40.632Z,16.70
2022-07-31T04:39:10.702Z,16.70
2022-07-31T04:41:39.962Z,16.70
2022-07-31T04:44:08.552Z,16.80
2022-07-31T04:46:37.168Z,16.80
2022-07-31T04:49:05.804Z,16.90
2022-07-31T04:51:34.601Z,16.90
2022-07-31T04:54:03.200Z,17.00
2022-07-31T04:56:42.089Z,17.10
2022-07-31T04:59:12.952Z,17.10
2022-07-31T05:01:43.186Z,17.10
2022-07-31T05:04:12.275Z,17.20
2022-07-31T05:06:42.481Z,17.30
2022-07-31T05:09:18.412Z,17.30
2022-07-31T05:11:49.576Z,17.40
2022-07-31T05:14:20.952Z,17.50
2022-07-31T05:16:52.282Z,17.50
2022-07-31T05:19:20.923Z,17.60
2022-07-31T05:21:53.768Z,17.70
2022-07-31T05:24:33.048Z,17.70
2022-07-31T05:27:04.997Z,17.80
2022-07-31T05:29:34.493Z,17.90
2022-07-31T05:32:03.093Z,17.90
2022-07-31T05:34:32.083Z,18.00
2022-07-31T05:37:01.808Z,18.10
2022-07-31T05:39:30.657Z,18.20
2022-07-31T05:41:59.284Z,18.30
2022-07-31T05:44:29.331Z,18.30
2022-07-31T05:49:29.164Z,18.50
2022-07-31T05:51:57.812Z,18.70
2022-07-31T05:54:26.402Z,18.70
2022-07-31T05:56:55.053Z,18.80
2022-07-31T05:59:24.091Z,18.90
2022-07-31T06:01:54.443Z,19.10
2022-07-31T06:04:23.152Z,19.20
2022-07-31T06:06:52.028Z,19.30
2022-07-31T06:09:20.705Z,19.50
2022-07-31T06:11:49.356Z,19.80
2022-07-31T06:14:17.987Z,19.90
2022-07-31T06:16:48.407Z,20.00
2022-07-31T06:19:24.534Z,20.10
2022-07-31T06:21:53.989Z,20.10
2022-07-31T06:24:22.756Z,20.40
2022-07-31T06:26:52.217Z,20.50
2022-07-31T06:29:40.623Z,20.60
2022-07-31T06:32:10.027Z,20.60
2022-07-31T06:34:40.136Z,20.80
2022-07-31T06:37:09.386Z,21.10
2022-07-31T06:39:56.004Z,21.20
2022-07-31T06:42:26.167Z,21.30
2022-07-31T06:44:55.698Z,21.30
2022-07-31T06:47:26.502Z,21.50
2022-07-31T06:49:56.986Z,21.50
2022-07-31T06:52:25.676Z,21.60
2022-07-31T06:54:54.376Z,21.60
2022-07-31T06:57:22.956Z,21.50
2022-07-31T06:59:51.669Z,21.60
2022-07-31T07:02:20.267Z,21.60
2022-07-31T07:04:57.328Z,21.60
2022-07-31T07:10:19.786Z,21.40
2022-07-31T07:12:49.246Z,21.50
2022-07-31T07:15:17.966Z,21.60
2022-07-31T07:17:46.566Z,21.60
2022-07-31T07:20:15.213Z,21.70
2022-07-31T07:22:43.826Z,21.80
2022-07-31T07:25:13.701Z,22.00
2022-07-31T07:27:43.657Z,22.20
2022-07-31T07:30:12.747Z,22.30
2022-07-31T07:32:41.358Z,22.40
2022-07-31T07:35:12.650Z,22.50
2022-07-31T07:37:41.318Z,22.80
2022-07-31T07:40:11.785Z,23.10
2022-07-31T07:42:40.416Z,23.40
2022-07-31T07:45:11.514Z,23.50
2022-07-31T07:47:53.775Z,23.50
2022-07-31T07:50:31.436Z,23.70
2022-07-31T07:53:00.287Z,23.80
2022-07-31T07:55:37.377Z,23.90
2022-07-31T07:58:11.427Z,23.80
2022-07-31T08:00:42.237Z,23.60
2022-07-31T08:03:51.381Z,23.70
2022-07-31T08:05:59.807Z,23.70
2022-07-31T08:08:28.435Z,23.80
2022-07-31T08:10:57.337Z,23.80
2022-07-31T08:13:25.947Z,23.80
2022-07-31T08:15:55.916Z,23.80
2022-07-31T08:18:28.443Z,23.90
2022-07-31T08:20:57.227Z,24.00
2022-07-31T08:23:25.827Z,23.90
2022-07-31T08:25:55.283Z,23.90
2022-07-31T08:28:26.576Z,23.90
2022-07-31T08:30:56.697Z,24.00
2022-07-31T08:33:25.315Z,24.10
2022-07-31T08:35:54.077Z,24.20
2022-07-31T08:38:22.626Z,24.40
2022-07-31T08:40:51.949Z,24.60
2022-07-31T08:46:13.165Z,24.70
2022-07-31T08:48:43.346Z,24.90
2022-07-31T08:51:13.963Z,25.20
2022-07-31T08:53:45.316Z,25.10
2022-07-31T08:56:14.385Z,25.60
2022-07-31T08:58:42.946Z,25.90
2022-07-31T09:01:15.186Z,25.70
2022-07-31T09:03:44.006Z,25.50
2022-07-31T09:06:12.676Z,25.10
2022-07-31T09:08:41.358Z,24.80
2022-07-31T09:11:11.999Z,24.60
2022-07-31T09:13:41.147Z,24.40
2022-07-31T09:16:09.738Z,24.10
2022-07-31T09:18:39.717Z,24.20
2022-07-31T09:21:09.107Z,24.50
2022-07-31T09:23:46.918Z,24.80
2022-07-31T09:26:16.036Z,25.30
2022-07-31T09:28:47.476Z,25.60
2022-07-31T09:31:16.807Z,25.60
2022-07-31T09:33:47.867Z,25.80
2022-07-31T09:36:16.606Z,26.00
2022-07-31T09:38:45.556Z,26.20
2022-07-31T09:41:56.623Z,26.30
2022-07-31T09:44:10.568Z,26.50
2022-07-31T09:46:43.527Z,26.60
2022-07-31T09:49:13.846Z,26.90
2022-07-31T09:51:43.519Z,26.60
2022-07-31T09:54:22.302Z,26.30
2022-07-31T09:56:55.426Z,26.10
2022-07-31T09:59:25.429Z,25.90
2022-07-31T10:01:55.536Z,25.90
2022-07-31T10:04:26.294Z,25.90
2022-07-31T10:06:57.280Z,25.90
2022-07-31T10:09:28.726Z,25.80
2022-07-31T10:11:58.966Z,25.90
2022-07-31T10:14:32.417Z,25.90
2022-07-31T10:17:04.959Z,26.00
2022-07-31T10:19:38.603Z,26.20
2022-07-31T10:22:07.956Z,26.50
2022-07-31T10:24:45.538Z,26.50
2022-07-31T10:27:15.995Z,26.40
2022-07-31T10:29:45.498Z,26.60
2022-07-31T10:32:14.139Z,26.90
2022-07-31T10:34:44.637Z,27.30
2022-07-31T10:37:20.416Z,27.40
2022-07-31T10:39:55.020Z,27.40
2022-07-31T10:42:35.116Z,27.30
2022-07-31T10:45:08.698Z,27.40
2022-07-31T10:47:37.696Z,27.30
2022-07-31T10:50:09.075Z,27.30
2022-07-31T10:52:39.678Z,27.60
2022-07-31T10:55:17.677Z,28.00
2022-07-31T10:57:56.097Z,28.00
2022-07-31T11:00:29.950Z,28.00
2022-07-31T11:03:12.944Z,28.40
2022-07-31T11:06:02.601Z,29.10
2022-07-31T11:08:43.256Z,29.00
2022-07-31T11:11:12.296Z,28.90
2022-07-31T11:13:51.136Z,28.70
2022-07-31T11:16:21.197Z,28.20
2022-07-31T11:19:02.835Z,28.00
2022-07-31T11:21:39.574Z,27.30
2022-07-31T11:24:16.215Z,26.80
2022-07-31T11:26:51.135Z,26.40
2022-07-31T11:29:59.751Z,26.00
2022-07-31T11:32:25.963Z,25.90
2022-07-31T11:34:56.946Z,25.90
2022-07-31T11:37:45.960Z,25.80
2022-07-31T11:40:17.717Z,25.80
2022-07-31T11:42:52.566Z,25.90
2022-07-31T11:45:33.778Z,26.20
2022-07-31T11:48:11.956Z,26.50
2022-07-31T11:50:42.650Z,26.70
2022-07-31T11:53:13.415Z,26.90
2022-07-31T11:55:53.183Z,27.00
2022-07-31T11:58:23.776Z,27.10
2022-07-31T12:00:54.668Z,27.50
2022-07-31T12:03:25.556Z,28.10
2022-07-31T12:05:55.176Z,29.20
2022-07-31T12:08:26.715Z,30.00
2022-07-31T12:10:56.737Z,30.40
2022-07-31T12:13:26.916Z,30.50
2022-07-31T12:15:57.415Z,30.40
2022-07-31T12:18:26.716Z,30.10
2022-07-31T12:21:00.136Z,29.70
2022-07-31T12:23:41.993Z,29.70
2022-07-31T12:26:14.257Z,30.00
2022-07-31T12:28:43.857Z,30.10
2022-07-31T12:31:12.576Z,29.90
2022-07-31T12:33:45.836Z,29.60
2022-07-31T12:36:16.420Z,29.00
2022-07-31T12:38:49.044Z,28.70
2022-07-31T12:41:18.300Z,28.40
2022-07-31T12:43:51.557Z,27.90
2022-07-31T12:46:22.992Z,27.70
2022-07-31T12:48:52.317Z,27.60
2022-07-31T12:51:44.901Z,27.40
2022-07-31T12:54:11.755Z,27.30
2022-07-31T12:56:42.637Z,27.20
2022-07-31T12:59:11.654Z,27.10
2022-07-31T13:01:40.626Z,27.00
2022-07-31T13:04:19.090Z,26.80
2022-07-31T13:06:51.870Z,26.70
2022-07-31T13:09:22.072Z,26.70
2022-07-31T13:11:55.842Z,26.50
2022-07-31T13:14:26.554Z,26.50
2022-07-31T13:16:56.292Z,26.40
2022-07-31T13:19:24.930Z,26.40
2022-07-31T13:21:56.996Z,26.30
2022-07-31T13:24:27.199Z,26.30
2022-07-31T13:26:59.112Z,26.30
2022-07-31T13:29:27.791Z,26.20
2022-07-31T13:31:56.470Z,26.10
2022-07-31T13:34:25.223Z,26.10
2022-07-31T13:36:53.961Z,26.00
2022-07-31T13:39:22.790Z,25.90
2022-07-31T13:41:52.820Z,25.70
2022-07-31T13:44:21.413Z,25.50
2022-07-31T13:46:50.674Z,25.30
2022-07-31T13:49:19.373Z,25.20
2022-07-31T13:51:48.072Z,25.10
2022-07-31T13:54:16.784Z,25.00
2022-07-31T13:56:45.435Z,24.80
2022-07-31T13:59:16.429Z,24.70
2022-07-31T14:02:04.995Z,24.70
2022-07-31T14:04:38.104Z,24.60
2022-07-31T14:07:07.953Z,24.50
2022-07-31T14:09:37.850Z,24.50
2022-07-31T14:12:07.490Z,24.50
2022-07-31T14:14:37.810Z,24.40
2022-07-31T14:17:06.481Z,24.30
2022-07-31T14:19:39.488Z,24.20
2022-07-31T14:22:14.294Z,24.20
2022-07-31T14:24:49.902Z,24.20
2022-07-31T14:27:21.332Z,24.20
2022-07-31T14:29:51.430Z,24.30
2022-07-31T14:32:22.048Z,24.20
2022-07-31T14:34:51.571Z,24.20
2022-07-31T14:37:21.382Z,24.20
2022-07-31T14:39:50.072Z,24.20
2022-07-31T14:42:27.338Z,24.20
2022-07-31T14:44:59.023Z,24.10
2022-07-31T14:47:27.912Z,24.00
2022-07-31T14:50:09.152Z,23.80
2022-07-31T14:52:39.568Z,23.70
2022-07-31T14:55:09.163Z,23.50
2022-07-31T14:57:37.762Z,23.40
2022-07-31T15:00:13.380Z,23.20
2022-07-31T15:02:42.268Z,23.10
2022-07-31T15:06:39.329Z,22.90
2022-07-31T15:08:00.403Z,22.90
2022-07-31T15:10:31.502Z,22.70
2022-07-31T15:13:00.160Z,22.60
2022-07-31T15:15:30.227Z,22.40
2022-07-31T15:18:02.292Z,22.40
2022-07-31T15:20:32.878Z,22.40
2022-07-31T15:23:02.076Z,22.30
2022-07-31T15:25:31.176Z,22.20
2022-07-31T15:27:59.888Z,22.10
2022-07-31T15:30:29.962Z,22.00
2022-07-31T15:32:59.095Z,22.00
2022-07-31T15:35:27.861Z,22.00
2022-07-31T15:37:59.089Z,22.00
2022-07-31T15:40:27.903Z,22.00
2022-07-31T15:42:56.544Z,22.00
2022-07-31T15:45:25.094Z,22.00
2022-07-31T15:47:55.082Z,22.00
2022-07-31T15:50:23.745Z,22.00
2022-07-31T15:52:52.534Z,22.10
2022-07-31T15:55:21.143Z,22.20
2022-07-31T15:57:49.763Z,22.10
2022-07-31T16:00:19.162Z,22.10
2022-07-31T16:02:47.873Z,22.10
2022-07-31T16:05:21.606Z,22.10
2022-07-31T16:08:30.449Z,22.10
2022-07-31T16:10:54.981Z,22.20
2022-07-31T16:13:24.420Z,22.10
2022-07-31T16:15:53.169Z,22.00
2022-07-31T16:18:22.045Z,22.00
2022-07-31T16:20:53.151Z,21.90
2022-07-31T16:23:21.974Z,21.80
2022-07-31T16:25:50.655Z,21.80
2022-07-31T16:28:19.312Z,21.80
2022-07-31T16:30:48.373Z,21.70
2022-07-31T16:33:17.043Z,21.60
2022-07-31T16:35:45.732Z,21.50
2022-07-31T16:38:15.819Z,21.40
2022-07-31T16:40:44.563Z,21.20
2022-07-31T16:43:50.478Z,21.10
2022-07-31T16:46:01.886Z,21.00
2022-07-31T16:48:31.554Z,21.00
2022-07-31T16:51:00.867Z,20.90
2022-07-31T16:54:11.278Z,20.90
2022-07-31T16:56:20.772Z,20.80
2022-07-31T16:58:54.216Z,20.80
2022-07-31T17:01:56.999Z,20.80
2022-07-31T17:04:11.757Z,20.80
2022-07-31T17:06:40.353Z,20.70
2022-07-31T17:09:15.195Z,20.70
2022-07-31T17:11:48.145Z,20.70
2022-07-31T17:14:17.003Z,20.70
2022-07-31T17:16:48.101Z,20.60
2022-07-31T17:19:35.868Z,20.60
2022-07-31T17:22:07.981Z,20.60
2022-07-31T17:24:38.984Z,20.50
2022-07-31T17:27:09.845Z,20.50
2022-07-31T17:29:39.590Z,20.50
2022-07-31T17:32:11.102Z,20.50
2022-07-31T17:34:40.561Z,20.50
2022-07-31T17:37:09.649Z,20.50
2022-07-31T17:39:39.953Z,20.50
2022-07-31T17:42:09.373Z,20.50
2022-07-31T17:44:38.304Z,20.50
2022-07-31T17:47:09.644Z,20.40
2022-07-31T17:49:38.765Z,20.40
2022-07-31T17:52:07.769Z,20.30
2022-07-31T17:54:36.512Z,20.20
2022-07-31T17:57:06.725Z,20.20
2022-07-31T17:59:35.343Z,20.10
2022-07-31T18:02:04.956Z,20.10
2022-07-31T18:04:35.771Z,20.20
2022-07-31T18:07:05.743Z,20.20
2022-07-31T18:09:35.376Z,20.10
2022-07-31T18:12:14.877Z,20.00
2022-07-31T18:14:44.333Z,19.90
2022-07-31T18:17:13.383Z,19.90
2022-07-31T18:19:42.244Z,19.90
2022-07-31T18:22:10.983Z,19.90
2022-07-31T18:24:39.812Z,19.80
2022-07-31T18:27:12.823Z,19.80
2022-07-31T18:29:41.371Z,19.90
2022-07-31T18:32:24.483Z,19.80
2022-07-31T18:34:53.640Z,19.80
2022-07-31T18:37:22.291Z,19.70
2022-07-31T18:39:50.932Z,19.70
2022-07-31T18:42:21.516Z,19.70
2022-07-31T18:44:52.210Z,19.70
2022-07-31T18:47:21.081Z,19.80
2022-07-31T18:51:02.439Z,19.70
2022-07-31T18:52:38.423Z,19.60
2022-07-31T18:55:08.083Z,19.50
2022-07-31T18:57:38.172Z,19.50
2022-07-31T19:00:09.525Z,19.60
2022-07-31T19:02:38.272Z,19.70
2022-07-31T19:05:07.722Z,19.60
2022-07-31T19:07:42.442Z,19.50
2022-07-31T19:10:11.341Z,19.40
2022-07-31T19:13:01.073Z,19.40
2022-07-31T19:15:30.037Z,19.30
2022-07-31T19:18:02.169Z,19.40
2022-07-31T19:20:41.345Z,19.40
2022-07-31T19:23:21.592Z,19.40
2022-07-31T19:25:53.018Z,19.50
2022-07-31T19:28:33.504Z,19.50
2022-07-31T19:31:02.672Z,19.40
2022-07-31T19:33:31.329Z,19.40
2022-07-31T19:36:02.827Z,19.50
2022-07-31T19:38:32.522Z,19.50
2022-07-31T19:41:01.675Z,19.40
2022-07-31T19:43:30.505Z,19.50
2022-07-31T19:46:11.680Z,19.50
2022-07-31T19:48:42.162Z,19.50
2022-07-31T19:51:11.099Z,19.60
2022-07-31T19:53:39.974Z,19.50
2022-07-31T19:56:08.961Z,19.50
2022-07-31T19:58:38.700Z,19.50
2022-07-31T20:01:10.191Z,19.50
2022-07-31T20:03:39.260Z,19.50
2022-07-31T20:06:08.223Z,19.50
2022-07-31T20:08:37.082Z,19.40
2022-07-31T20:11:06.262Z,19.30
2022-07-31T20:13:36.259Z,19.30
2022-07-31T20:16:05.382Z,19.20
2022-07-31T20:18:35.633Z,19.20
2022-07-31T20:21:07.483Z,19.30
2022-07-31T20:23:38.759Z,19.40
2022-07-31T20:26:08.402Z,19.40
2022-07-31T20:28:37.321Z,19.40
2022-07-31T20:31:05.912Z,19.30
2022-07-31T20:33:36.210Z,19.30
2022-07-31T20:36:05.592Z,19.30
2022-07-31T20:38:34.808Z,19.30
2022-07-31T20:41:04.003Z,19.30
2022-07-31T20:43:32.641Z,19.30
2022-07-31T20:46:01.349Z,19.30
2022-07-31T20:48:32.821Z,19.40
2022-07-31T20:51:05.149Z,19.30
2022-07-31T20:53:34.092Z,19.30
2022-07-31T20:56:02.721Z,19.30
2022-07-31T20:58:31.769Z,19.30
2022-07-31T21:01:00.458Z,19.30
2022-07-31T21:03:29.391Z,19.30
2022-07-31T21:05:58.289Z,19.30
2022-07-31T21:08:28.374Z,19.30
2022-07-31T21:10:59.683Z,19.30
2022-07-31T21:13:30.042Z,19.30
2022-07-31T21:15:59.009Z,19.30
2022-07-31T21:18:30.450Z,19.30
2022-07-31T21:21:02.932Z,19.30
2022-07-31T21:23:33.232Z,19.40
2022-07-31T21:26:02.905Z,19.40
2022-07-31T21:28:31.951Z,19.40
2022-07-31T21:31:01.879Z,19.40
2022-07-31T21:33:30.964Z,19.50
2022-07-31T21:36:00.222Z,19.50
2022-07-31T21:38:29.293Z,19.50
2022-07-31T21:41:00.233Z,19.60
2022-07-31T21:43:33.525Z,19.60
2022-07-31T21:46:23.228Z,19.60
2022-07-31T21:48:52.968Z,19.60
2022-07-31T21:51:22.082Z,19.60
2022-07-31T21:53:50.674Z,19.60
2022-07-31T21:56:20.793Z,19.60
2022-07-31T21:58:49.783Z,19.70
2022-07-31T22:01:19.549Z,19.60
2022-07-31T22:03:48.274Z,19.60
2022-07-31T22:06:34.277Z,19.60
2022-07-31T22:09:02.944Z,19.60
2022-07-31T22:11:33.982Z,19.60
2022-07-31T22:14:02.602Z,19.60
2022-07-31T22:16:31.392Z,19.70
2022-07-31T22:19:01.863Z,19.70
2022-07-31T22:21:30.905Z,19.70
2022-07-31T22:24:00.003Z,19.70
2022-07-31T22:26:29.152Z,19.80
2022-07-31T22:29:00.653Z,19.80
2022-07-31T22:31:29.742Z,19.80
2022-07-31T22:33:58.594Z,19.80
2022-07-31T22:36:28.183Z,19.80
2022-07-31T22:38:58.363Z,19.80
2022-07-31T22:41:27.204Z,19.80
2022-07-31T22:44:12.958Z,19.80
2022-07-31T22:46:49.105Z,19.80
2022-07-31T22:49:18.054Z,19.80
2022-07-31T22:51:46.872Z,19.70
2022-07-31T22:54:15.724Z,19.80
2022-07-31T22:56:44.374Z,19.70
2022-07-31T22:59:12.873Z,19.70
2022-07-31T23:01:41.454Z,19.80
2022-07-31T23:04:11.553Z,19.70
2022-07-31T23:06:40.373Z,19.70
2022-07-31T23:09:09.104Z,19.70
2022-07-31T23:11:37.722Z,19.80
2022-07-31T23:14:06.344Z,19.80
2022-07-31T23:16:35.097Z,19.80
2022-07-31T23:19:03.744Z,19.80
2022-07-31T23:21:33.771Z,19.80
2022-07-31T23:24:02.463Z,19.80
2022-07-31T23:26:31.153Z,19.80
2022-07-31T23:29:02.404Z,19.80
2022-07-31T23:31:31.002Z,19.80
2022-07-31T23:33:59.616Z,19.80
2022-07-31T23:36:28.272Z,19.80
2022-07-31T23:38:59.044Z,19.80
2022-07-31T23:41:45.213Z,19.70
2022-07-31T23:44:13.862Z,19.80
2022-07-31T23:46:47.273Z,19.80
2022-07-31T23:49:21.366Z,19.80
2022-07-31T23:51:50.133Z,19.80
2022-07-31T23:54:20.233Z,19.70
2022-07-31T23:56:51.225Z,19.80
2022-07-31T23:59:19.894Z,19.80
